Pubnico, Canada
Current Conditions -  °F | °C
As of 7:22 AM on Friday 24 Oct 2014 (Local Time) from CYQI Reporting Station
Drizzle Drizzle  
Wind Chill: 54°   Ceiling: 500
Heat Index: 54°   Visibility: 2mi
Dew Point: 54°   Wind: 10mph
Humidity: 100%   Direction: 30°NNE
Pressure: 29.51"   Gusts: NA
Location:  43.7°N, 65.78°W
Report Text: CYQI 241022Z 03009KT 2SM -DZ BR OVC005 12/12 A2951 RMK SF8 SLP995 DENSITY ALT 200FT
Loading
Personal Weather Stations






























Interactive Weather Map
Tropical Storm Tracking
New forecast layout! Learn more

10-Day Weather Forecast

Advertisements
Track Severe Weather on mobile